Winfield, AL (35594)

10:40 AM CST on December 21, 2014 (GMT -0600)
Winfield East Side 2 | Change Station
CLOSE
Current Station
Personal Weather Station
Location: Winfield, AL
Elevation: 660 ft
Nearby Weather Stations

Elev 660 ft 33.92 °N, 87.80 °W | Updated 5 seconds ago

Mostly Cloudy
Mostly Cloudy
47.3 °F
Feels Like 47 °F
N
2.0
Wind Variable Wind from East
Gusts 6.0 mph

Today
High -- | Low -- °F
--% Chance of Precip.
Yesterday
High -- | Low -- °F
Precip. -- in
6:52 AM 4:46 PM
Waning Crescent, 0% visible
Pressure 30.25 in
Visibility 6.0 miles
Clouds Few 600 ft
Mostly Cloudy 2700 ft
Windchill 47 °F
Dew Point 42 °F
Humidity 83%
Rainfall 0.00 in
Snow Depth Not available.
UV 1 out of 12
Pollen .30 out of 12
Air Quality Not available.
Flu Activity Not available.
METAR K1M4 211556Z AUTO 00000KT 6SM BR FEW006 BKN027 05/03 A3021 RMK AO2 T00500033 BKN V OVC SLP241 $

More Conditions Fewer Conditions

Pressure 30.25 in
Visibility 6.0 miles
Clouds Few 600 ft
Mostly Cloudy 2700 ft
Windchill 47 °F
Dew Point 42 °F
Humidity 83%
Rainfall 0.00 in
Snow Depth Not available.
UV 1 out of 12
Pollen .30 out of 12
Air Quality Not available.
Flu Activity Not available.
METAR K1M4 211556Z AUTO 00000KT 6SM BR FEW006 BKN027 05/03 A3021 RMK AO2 T00500033 BKN V OVC SLP241 $

More Conditions Fewer Conditions

10-Day Weather Forecast

Almanac

Astronomy

Dec. 21, 2014 Rise Set
Actual Time
Civil Twilight
Nautical Twilight
Astronomical Twilight
Moon
Length of Visible Light
Length of Day
Tomorrow will be .
, % of the Moon is Illuminated

Today's Extremes

State Highs State Lows

Community

WunderPhotos

Upload Photos

1,779,433 photos uploaded!

WunderBlogs® & News

Nearby

Air Quality

  Air Quality AQ Index Pollutant
Not available.

Snow Depth

Station Depth Elevation

Earthquake Activity

City Distance Mag. Time & Date
Minimum magnitude displayed is 2.5.

Coastal Water Temperatures

Place Temperature

Nearby Weather Stations